sensor_id;sensor_type;location;lat;lon;timestamp;temperature;humidity
48454;DHT22;34261;55.678;12.464;2023-04-15T00:01:23;10.60;99.90
48454;DHT22;34261;55.678;12.464;2023-04-15T00:03:52;10.60;99.90
48454;DHT22;34261;55.678;12.464;2023-04-15T00:06:18;10.60;99.90
48454;DHT22;34261;55.678;12.464;2023-04-15T00:08:45;10.70;99.90
48454;DHT22;34261;55.678;12.464;2023-04-15T00:11:10;10.60;99.90
48454;DHT22;34261;55.678;12.464;2023-04-15T00:13:37;10.60;99.90
48454;DHT22;34261;55.678;12.464;2023-04-15T00:16:02;10.60;99.90
48454;DHT22;34261;55.678;12.464;2023-04-15T00:18:28;10.50;99.90
48454;DHT22;34261;55.678;12.464;2023-04-15T00:20:54;10.50;99.90
48454;DHT22;34261;55.678;12.464;2023-04-15T00:23:19;10.50;99.90
48454;DHT22;34261;55.678;12.464;2023-04-15T00:25:45;10.50;99.90
48454;DHT22;34261;55.678;12.464;2023-04-15T00:28:11;10.50;99.90
48454;DHT22;34261;55.678;12.464;2023-04-15T00:30:36;10.50;99.90
48454;DHT22;34261;55.678;12.464;2023-04-15T00:33:02;10.50;99.90
48454;DHT22;34261;55.678;12.464;2023-04-15T00:35:28;10.50;99.90
48454;DHT22;34261;55.678;12.464;2023-04-15T00:37:53;10.50;99.90
48454;DHT22;34261;55.678;12.464;2023-04-15T00:40:19;10.50;99.90
48454;DHT22;34261;55.678;12.464;2023-04-15T00:42:45;10.50;99.90
48454;DHT22;34261;55.678;12.464;2023-04-15T00:45:11;10.50;99.90
48454;DHT22;34261;55.678;12.464;2023-04-15T00:47:37;10.50;99.90
48454;DHT22;34261;55.678;12.464;2023-04-15T00:50:03;10.50;99.90
48454;DHT22;34261;55.678;12.464;2023-04-15T00:52:29;10.50;99.90
48454;DHT22;34261;55.678;12.464;2023-04-15T00:54:54;10.50;99.90
48454;DHT22;34261;55.678;12.464;2023-04-15T00:57:20;10.50;99.90
48454;DHT22;34261;55.678;12.464;2023-04-15T00:59:46;10.40;99.90
48454;DHT22;34261;55.678;12.464;2023-04-15T01:02:12;10.40;99.90
48454;DHT22;34261;55.678;12.464;2023-04-15T01:04:37;10.40;99.90
48454;DHT22;34261;55.678;12.464;2023-04-15T01:07:03;10.40;99.90
48454;DHT22;34261;55.678;12.464;2023-04-15T01:09:28;10.40;99.90
48454;DHT22;34261;55.678;12.464;2023-04-15T01:11:53;10.40;99.90
48454;DHT22;34261;55.678;12.464;2023-04-15T01:14:19;10.30;99.90
48454;DHT22;34261;55.678;12.464;2023-04-15T01:16:45;10.30;99.90
48454;DHT22;34261;55.678;12.464;2023-04-15T01:19:11;10.30;99.90
48454;DHT22;34261;55.678;12.464;2023-04-15T01:21:38;10.30;99.90
48454;DHT22;34261;55.678;12.464;2023-04-15T01:24:05;10.30;99.90
48454;DHT22;34261;55.678;12.464;2023-04-15T01:26:34;10.30;99.90
48454;DHT22;34261;55.678;12.464;2023-04-15T01:28:59;10.20;99.90
48454;DHT22;34261;55.678;12.464;2023-04-15T01:31:25;10.30;99.90
48454;DHT22;34261;55.678;12.464;2023-04-15T01:33:51;10.30;99.90
48454;DHT22;34261;55.678;12.464;2023-04-15T01:36:17;10.20;99.90
48454;DHT22;34261;55.678;12.464;2023-04-15T01:38:42;10.20;99.90
48454;DHT22;34261;55.678;12.464;2023-04-15T01:41:08;10.20;99.90
48454;DHT22;34261;55.678;12.464;2023-04-15T01:43:34;10.20;99.90
48454;DHT22;34261;55.678;12.464;2023-04-15T01:46:00;10.20;99.90
48454;DHT22;34261;55.678;12.464;2023-04-15T01:48:26;10.20;99.90
48454;DHT22;34261;55.678;12.464;2023-04-15T01:50:51;10.20;99.90
48454;DHT22;34261;55.678;12.464;2023-04-15T01:53:17;10.10;99.90
48454;DHT22;34261;55.678;12.464;2023-04-15T01:55:43;10.10;99.90
48454;DHT22;34261;55.678;12.464;2023-04-15T01:58:08;10.20;99.90
48454;DHT22;34261;55.678;12.464;2023-04-15T02:00:34;10.20;99.90
48454;DHT22;34261;55.678;12.464;2023-04-15T02:02:59;10.10;99.90
48454;DHT22;34261;55.678;12.464;2023-04-15T02:05:25;10.00;99.90
48454;DHT22;34261;55.678;12.464;2023-04-15T02:07:50;10.00;99.90
48454;DHT22;34261;55.678;12.464;2023-04-15T02:10:16;10.00;99.90
48454;DHT22;34261;55.678;12.464;2023-04-15T02:12:41;10.00;99.90
48454;DHT22;34261;55.678;12.464;2023-04-15T02:15:07;10.00;99.90
48454;DHT22;34261;55.678;12.464;2023-04-15T02:17:33;10.00;99.90
48454;DHT22;34261;55.678;12.464;2023-04-15T02:19:59;10.00;99.90
48454;DHT22;34261;55.678;12.464;2023-04-15T02:22:25;10.00;99.90
48454;DHT22;34261;55.678;12.464;2023-04-15T02:24:50;9.90;99.90
48454;DHT22;34261;55.678;12.464;2023-04-15T02:27:16;9.90;99.90
48454;DHT22;34261;55.678;12.464;2023-04-15T02:29:45;9.90;99.90
48454;DHT22;34261;55.678;12.464;2023-04-15T02:32:11;9.90;99.90
48454;DHT22;34261;55.678;12.464;2023-04-15T02:34:40;9.90;99.90
48454;DHT22;34261;55.678;12.464;2023-04-15T02:37:07;9.90;99.90
48454;DHT22;34261;55.678;12.464;2023-04-15T02:39:33;9.90;99.90
48454;DHT22;34261;55.678;12.464;2023-04-15T02:41:58;9.90;99.90
48454;DHT22;34261;55.678;12.464;2023-04-15T02:44:25;10.00;99.90
48454;DHT22;34261;55.678;12.464;2023-04-15T02:46:51;10.00;99.90
48454;DHT22;34261;55.678;12.464;2023-04-15T02:49:19;10.00;99.90
48454;DHT22;34261;55.678;12.464;2023-04-15T02:51:44;10.10;99.90
48454;DHT22;34261;55.678;12.464;2023-04-15T02:54:20;10.10;99.90
48454;DHT22;34261;55.678;12.464;2023-04-15T02:56:47;10.10;99.90
48454;DHT22;34261;55.678;12.464;2023-04-15T02:59:12;10.10;99.90
48454;DHT22;34261;55.678;12.464;2023-04-15T03:01:38;10.20;99.90
48454;DHT22;34261;55.678;12.464;2023-04-15T03:04:03;10.10;99.90
48454;DHT22;34261;55.678;12.464;2023-04-15T03:06:29;10.10;99.90
48454;DHT22;34261;55.678;12.464;2023-04-15T03:08:55;10.10;99.90
48454;DHT22;34261;55.678;12.464;2023-04-15T03:11:21;10.20;99.90
48454;DHT22;34261;55.678;12.464;2023-04-15T03:13:46;10.20;99.90
48454;DHT22;34261;55.678;12.464;2023-04-15T03:16:12;10.20;99.90
48454;DHT22;34261;55.678;12.464;2023-04-15T03:18:37;10.10;99.90
48454;DHT22;34261;55.678;12.464;2023-04-15T03:21:03;10.10;99.90
48454;DHT22;34261;55.678;12.464;2023-04-15T03:23:29;10.00;99.90
48454;DHT22;34261;55.678;12.464;2023-04-15T03:26:00;10.00;99.90
48454;DHT22;34261;55.678;12.464;2023-04-15T03:28:26;10.00;99.90
48454;DHT22;34261;55.678;12.464;2023-04-15T03:30:51;9.90;99.90
48454;DHT22;34261;55.678;12.464;2023-04-15T03:33:17;10.00;99.90
48454;DHT22;34261;55.678;12.464;2023-04-15T03:35:43;9.90;99.90
48454;DHT22;34261;55.678;12.464;2023-04-15T03:38:09;9.90;99.90
48454;DHT22;34261;55.678;12.464;2023-04-15T03:40:34;10.00;99.90
48454;DHT22;34261;55.678;12.464;2023-04-15T03:43:00;10.00;99.90
48454;DHT22;34261;55.678;12.464;2023-04-15T03:45:25;10.00;99.90
48454;DHT22;34261;55.678;12.464;2023-04-15T03:47:51;10.10;99.90
48454;DHT22;34261;55.678;12.464;2023-04-15T03:50:16;10.10;99.90
48454;DHT22;34261;55.678;12.464;2023-04-15T03:52:43;10.10;99.90
48454;DHT22;34261;55.678;12.464;2023-04-15T03:55:08;10.00;99.90
48454;DHT22;34261;55.678;12.464;2023-04-15T03:57:34;10.00;99.90
48454;DHT22;34261;55.678;12.464;2023-04-15T04:00:05;10.00;99.90
48454;DHT22;34261;55.678;12.464;2023-04-15T04:02:31;10.00;99.90
48454;DHT22;34261;55.678;12.464;2023-04-15T04:04:56;10.00;99.90
48454;DHT22;34261;55.678;12.464;2023-04-15T04:07:22;9.90;99.90
48454;DHT22;34261;55.678;12.464;2023-04-15T04:09:48;9.90;99.90
48454;DHT22;34261;55.678;12.464;2023-04-15T04:12:13;9.90;99.90
48454;DHT22;34261;55.678;12.464;2023-04-15T04:14:39;9.80;99.90
48454;DHT22;34261;55.678;12.464;2023-04-15T04:17:04;9.80;99.90
48454;DHT22;34261;55.678;12.464;2023-04-15T04:19:30;9.80;99.90
48454;DHT22;34261;55.678;12.464;2023-04-15T04:21:55;9.80;99.90
48454;DHT22;34261;55.678;12.464;2023-04-15T04:24:21;9.80;99.90
48454;DHT22;34261;55.678;12.464;2023-04-15T04:26:46;9.80;99.90
48454;DHT22;34261;55.678;12.464;2023-04-15T04:29:12;9.80;99.90
48454;DHT22;34261;55.678;12.464;2023-04-15T04:31:37;9.80;99.90
48454;DHT22;34261;55.678;12.464;2023-04-15T04:34:02;9.80;99.90
48454;DHT22;34261;55.678;12.464;2023-04-15T04:36:28;9.80;99.90
48454;DHT22;34261;55.678;12.464;2023-04-15T04:38:55;9.80;99.90
48454;DHT22;34261;55.678;12.464;2023-04-15T04:41:21;9.80;99.90
48454;DHT22;34261;55.678;12.464;2023-04-15T04:43:46;9.80;99.90
48454;DHT22;34261;55.678;12.464;2023-04-15T04:46:12;9.90;99.90
48454;DHT22;34261;55.678;12.464;2023-04-15T04:48:37;9.90;99.90
48454;DHT22;34261;55.678;12.464;2023-04-15T04:51:03;10.00;99.90
48454;DHT22;34261;55.678;12.464;2023-04-15T04:53:29;10.00;99.90
48454;DHT22;34261;55.678;12.464;2023-04-15T04:55:54;10.00;99.90
48454;DHT22;34261;55.678;12.464;2023-04-15T04:58:19;10.10;99.90
48454;DHT22;34261;55.678;12.464;2023-04-15T05:00:45;10.10;99.90
48454;DHT22;34261;55.678;12.464;2023-04-15T05:03:11;10.10;99.90
48454;DHT22;34261;55.678;12.464;2023-04-15T05:05:36;10.10;99.90
48454;DHT22;34261;55.678;12.464;2023-04-15T05:08:05;10.10;99.90
48454;DHT22;34261;55.678;12.464;2023-04-15T05:10:32;10.10;99.90
48454;DHT22;34261;55.678;12.464;2023-04-15T05:12:58;10.20;99.90
48454;DHT22;34261;55.678;12.464;2023-04-15T05:15:23;10.20;99.90
48454;DHT22;34261;55.678;12.464;2023-04-15T05:17:49;10.20;99.90
48454;DHT22;34261;55.678;12.464;2023-04-15T05:20:15;10.20;99.90
48454;DHT22;34261;55.678;12.464;2023-04-15T05:22:40;10.30;99.90
48454;DHT22;34261;55.678;12.464;2023-04-15T05:25:06;10.30;99.90
48454;DHT22;34261;55.678;12.464;2023-04-15T05:27:31;10.40;99.90
48454;DHT22;34261;55.678;12.464;2023-04-15T05:29:56;10.40;99.90
48454;DHT22;34261;55.678;12.464;2023-04-15T05:32:22;10.40;99.90
48454;DHT22;34261;55.678;12.464;2023-04-15T05:34:47;10.50;99.90
48454;DHT22;34261;55.678;12.464;2023-04-15T05:37:13;10.50;99.90
48454;DHT22;34261;55.678;12.464;2023-04-15T05:39:38;10.60;99.90
48454;DHT22;34261;55.678;12.464;2023-04-15T05:42:04;10.60;99.90
48454;DHT22;34261;55.678;12.464;2023-04-15T05:44:30;10.60;99.90
48454;DHT22;34261;55.678;12.464;2023-04-15T05:46:55;10.70;99.90
48454;DHT22;34261;55.678;12.464;2023-04-15T05:49:21;10.70;99.90
48454;DHT22;34261;55.678;12.464;2023-04-15T05:51:46;10.70;99.90
48454;DHT22;34261;55.678;12.464;2023-04-15T05:54:12;10.70;99.90
48454;DHT22;34261;55.678;12.464;2023-04-15T05:56:37;10.80;99.90
48454;DHT22;34261;55.678;12.464;2023-04-15T05:59:03;10.80;99.90
48454;DHT22;34261;55.678;12.464;2023-04-15T06:01:28;10.80;99.90
48454;DHT22;34261;55.678;12.464;2023-04-15T06:03:54;10.80;99.90
48454;DHT22;34261;55.678;12.464;2023-04-15T06:06:20;10.80;99.90
48454;DHT22;34261;55.678;12.464;2023-04-15T06:08:45;10.70;99.90
48454;DHT22;34261;55.678;12.464;2023-04-15T06:11:11;10.70;99.90
48454;DHT22;34261;55.678;12.464;2023-04-15T06:13:36;10.70;99.90
48454;DHT22;34261;55.678;12.464;2023-04-15T06:16:02;10.80;99.90
48454;DHT22;34261;55.678;12.464;2023-04-15T06:18:28;10.90;99.90
48454;DHT22;34261;55.678;12.464;2023-04-15T06:20:53;11.00;99.90
48454;DHT22;34261;55.678;12.464;2023-04-15T06:23:19;11.10;99.90
48454;DHT22;34261;55.678;12.464;2023-04-15T06:25:45;11.10;99.90
48454;DHT22;34261;55.678;12.464;2023-04-15T06:28:12;11.10;99.90
48454;DHT22;34261;55.678;12.464;2023-04-15T06:30:37;11.10;99.90
48454;DHT22;34261;55.678;12.464;2023-04-15T06:33:03;11.10;99.90
48454;DHT22;34261;55.678;12.464;2023-04-15T06:35:30;11.10;99.90
48454;DHT22;34261;55.678;12.464;2023-04-15T06:37:56;11.10;99.90
48454;DHT22;34261;55.678;12.464;2023-04-15T06:40:21;11.10;99.90
48454;DHT22;34261;55.678;12.464;2023-04-15T06:42:47;11.10;99.90
48454;DHT22;34261;55.678;12.464;2023-04-15T06:45:12;11.10;99.90
48454;DHT22;34261;55.678;12.464;2023-04-15T06:47:38;11.20;99.90
48454;DHT22;34261;55.678;12.464;2023-04-15T06:50:04;11.20;99.90
48454;DHT22;34261;55.678;12.464;2023-04-15T06:52:30;11.20;99.90
48454;DHT22;34261;55.678;12.464;2023-04-15T06:54:56;11.30;99.90
48454;DHT22;34261;55.678;12.464;2023-04-15T06:57:23;11.30;99.90
48454;DHT22;34261;55.678;12.464;2023-04-15T06:59:49;11.50;99.90
48454;DHT22;34261;55.678;12.464;2023-04-15T07:02:14;11.60;99.90
48454;DHT22;34261;55.678;12.464;2023-04-15T07:04:40;11.70;99.90
48454;DHT22;34261;55.678;12.464;2023-04-15T07:07:05;11.80;99.90
48454;DHT22;34261;55.678;12.464;2023-04-15T07:09:32;11.90;99.90
48454;DHT22;34261;55.678;12.464;2023-04-15T07:12:01;12.00;99.90
48454;DHT22;34261;55.678;12.464;2023-04-15T07:14:27;12.10;99.90
48454;DHT22;34261;55.678;12.464;2023-04-15T07:16:53;12.10;99.90
48454;DHT22;34261;55.678;12.464;2023-04-15T07:19:19;12.20;99.90
48454;DHT22;34261;55.678;12.464;2023-04-15T07:21:45;12.20;99.90
48454;DHT22;34261;55.678;12.464;2023-04-15T07:24:11;12.40;99.90
48454;DHT22;34261;55.678;12.464;2023-04-15T07:26:36;12.40;99.90
48454;DHT22;34261;55.678;12.464;2023-04-15T07:29:02;12.50;99.90
48454;DHT22;34261;55.678;12.464;2023-04-15T07:31:28;12.50;99.90
48454;DHT22;34261;55.678;12.464;2023-04-15T07:33:53;12.60;99.90
48454;DHT22;34261;55.678;12.464;2023-04-15T07:36:18;12.70;99.90
48454;DHT22;34261;55.678;12.464;2023-04-15T07:38:44;12.70;99.90
48454;DHT22;34261;55.678;12.464;2023-04-15T07:41:10;12.70;99.90
48454;DHT22;34261;55.678;12.464;2023-04-15T07:43:36;12.70;99.90
48454;DHT22;34261;55.678;12.464;2023-04-15T07:46:03;12.70;99.90
48454;DHT22;34261;55.678;12.464;2023-04-15T07:48:28;12.90;99.90
48454;DHT22;34261;55.678;12.464;2023-04-15T07:50:54;13.00;99.90
48454;DHT22;34261;55.678;12.464;2023-04-15T07:53:19;13.10;99.90
48454;DHT22;34261;55.678;12.464;2023-04-15T07:55:45;13.20;99.90
48454;DHT22;34261;55.678;12.464;2023-04-15T07:58:10;13.20;99.90
48454;DHT22;34261;55.678;12.464;2023-04-15T08:00:36;13.30;99.90
48454;DHT22;34261;55.678;12.464;2023-04-15T08:03:02;13.30;99.90
48454;DHT22;34261;55.678;12.464;2023-04-15T08:05:28;13.50;99.90
48454;DHT22;34261;55.678;12.464;2023-04-15T08:07:53;13.60;99.90
48454;DHT22;34261;55.678;12.464;2023-04-15T08:10:19;13.60;99.90
48454;DHT22;34261;55.678;12.464;2023-04-15T08:12:44;13.70;99.90
48454;DHT22;34261;55.678;12.464;2023-04-15T08:15:13;13.80;99.90
48454;DHT22;34261;55.678;12.464;2023-04-15T08:17:38;13.90;99.90
48454;DHT22;34261;55.678;12.464;2023-04-15T08:20:04;13.90;99.90
48454;DHT22;34261;55.678;12.464;2023-04-15T08:22:30;13.90;99.90
48454;DHT22;34261;55.678;12.464;2023-04-15T08:24:55;14.00;99.90
48454;DHT22;34261;55.678;12.464;2023-04-15T08:27:22;14.20;99.90
48454;DHT22;34261;55.678;12.464;2023-04-15T08:29:47;14.20;99.90
48454;DHT22;34261;55.678;12.464;2023-04-15T08:32:13;14.20;99.90
48454;DHT22;34261;55.678;12.464;2023-04-15T08:34:39;14.40;99.90
48454;DHT22;34261;55.678;12.464;2023-04-15T08:37:04;14.50;99.90
48454;DHT22;34261;55.678;12.464;2023-04-15T08:39:31;14.60;99.90
48454;DHT22;34261;55.678;12.464;2023-04-15T08:42:01;14.60;99.90
48454;DHT22;34261;55.678;12.464;2023-04-15T08:44:31;14.70;99.90
48454;DHT22;34261;55.678;12.464;2023-04-15T08:47:01;14.80;99.90
48454;DHT22;34261;55.678;12.464;2023-04-15T08:49:27;14.80;99.90
48454;DHT22;34261;55.678;12.464;2023-04-15T08:51:53;14.90;99.90
48454;DHT22;34261;55.678;12.464;2023-04-15T08:54:20;14.90;99.90
48454;DHT22;34261;55.678;12.464;2023-04-15T08:56:47;14.90;99.90
48454;DHT22;34261;55.678;12.464;2023-04-15T08:59:13;14.90;99.90
48454;DHT22;34261;55.678;12.464;2023-04-15T09:01:39;15.10;99.90
48454;DHT22;34261;55.678;12.464;2023-04-15T09:04:04;15.20;99.90
48454;DHT22;34261;55.678;12.464;2023-04-15T09:06:32;15.20;99.90
48454;DHT22;34261;55.678;12.464;2023-04-15T09:08:57;15.20;99.90
48454;DHT22;34261;55.678;12.464;2023-04-15T09:11:23;15.20;99.90
48454;DHT22;34261;55.678;12.464;2023-04-15T09:13:49;15.10;99.90
48454;DHT22;34261;55.678;12.464;2023-04-15T09:16:14;15.30;99.90
48454;DHT22;34261;55.678;12.464;2023-04-15T09:18:40;15.50;99.90
48454;DHT22;34261;55.678;12.464;2023-04-15T09:21:06;15.70;99.90
48454;DHT22;34261;55.678;12.464;2023-04-15T09:23:33;15.80;99.90
48454;DHT22;34261;55.678;12.464;2023-04-15T09:25:58;15.90;99.90
48454;DHT22;34261;55.678;12.464;2023-04-15T09:28:26;16.20;99.90
48454;DHT22;34261;55.678;12.464;2023-04-15T09:30:56;16.30;99.90
48454;DHT22;34261;55.678;12.464;2023-04-15T09:33:22;16.40;99.90
48454;DHT22;34261;55.678;12.464;2023-04-15T09:36:01;16.50;99.90
48454;DHT22;34261;55.678;12.464;2023-04-15T09:38:26;16.50;99.90
48454;DHT22;34261;55.678;12.464;2023-04-15T09:40:52;16.60;99.90
48454;DHT22;34261;55.678;12.464;2023-04-15T09:43:17;16.70;99.90
48454;DHT22;34261;55.678;12.464;2023-04-15T09:45:48;16.60;99.90
48454;DHT22;34261;55.678;12.464;2023-04-15T09:48:16;16.40;99.90
48454;DHT22;34261;55.678;12.464;2023-04-15T09:50:42;16.20;99.90
48454;DHT22;34261;55.678;12.464;2023-04-15T09:53:08;16.10;99.90
48454;DHT22;34261;55.678;12.464;2023-04-15T09:55:34;15.90;99.90
48454;DHT22;34261;55.678;12.464;2023-04-15T09:58:00;15.90;99.90
48454;DHT22;34261;55.678;12.464;2023-04-15T10:00:25;15.80;99.90
48454;DHT22;34261;55.678;12.464;2023-04-15T10:02:51;15.80;99.90
48454;DHT22;34261;55.678;12.464;2023-04-15T10:05:16;15.80;99.90
48454;DHT22;34261;55.678;12.464;2023-04-15T10:07:42;15.90;99.90
48454;DHT22;34261;55.678;12.464;2023-04-15T10:10:09;15.90;99.90
48454;DHT22;34261;55.678;12.464;2023-04-15T10:12:38;16.00;99.90
48454;DHT22;34261;55.678;12.464;2023-04-15T10:15:05;16.00;99.90
48454;DHT22;34261;55.678;12.464;2023-04-15T10:17:33;16.00;99.90
48454;DHT22;34261;55.678;12.464;2023-04-15T10:20:01;16.10;99.90
48454;DHT22;34261;55.678;12.464;2023-04-15T10:22:30;16.50;99.90
48454;DHT22;34261;55.678;12.464;2023-04-15T10:24:57;16.90;99.90
48454;DHT22;34261;55.678;12.464;2023-04-15T10:27:22;17.20;99.90
48454;DHT22;34261;55.678;12.464;2023-04-15T10:29:49;17.30;99.90
48454;DHT22;34261;55.678;12.464;2023-04-15T10:32:17;17.40;99.90
48454;DHT22;34261;55.678;12.464;2023-04-15T10:34:46;17.60;99.80
48454;DHT22;34261;55.678;12.464;2023-04-15T10:37:18;17.70;99.90
48454;DHT22;34261;55.678;12.464;2023-04-15T10:39:44;17.90;99.20
48454;DHT22;34261;55.678;12.464;2023-04-15T10:44:36;18.00;98.90
48454;DHT22;34261;55.678;12.464;2023-04-15T10:47:05;18.00;98.60
48454;DHT22;34261;55.678;12.464;2023-04-15T10:49:31;18.20;99.00
48454;DHT22;34261;55.678;12.464;2023-04-15T10:51:58;18.30;98.70
48454;DHT22;34261;55.678;12.464;2023-04-15T10:57:08;18.40;97.80
48454;DHT22;34261;55.678;12.464;2023-04-15T10:59:35;18.40;98.40
48454;DHT22;34261;55.678;12.464;2023-04-15T11:02:02;18.60;98.40
48454;DHT22;34261;55.678;12.464;2023-04-15T11:07:12;18.90;97.20
48454;DHT22;34261;55.678;12.464;2023-04-15T11:09:37;18.80;97.10
48454;DHT22;34261;55.678;12.464;2023-04-15T11:12:06;18.80;97.70
48454;DHT22;34261;55.678;12.464;2023-04-15T11:14:33;18.70;97.80
48454;DHT22;34261;55.678;12.464;2023-04-15T11:17:00;18.70;97.20
48454;DHT22;34261;55.678;12.464;2023-04-15T11:19:25;18.70;97.70
48454;DHT22;34261;55.678;12.464;2023-04-15T11:21:51;18.70;97.40
48454;DHT22;34261;55.678;12.464;2023-04-15T11:24:23;18.80;97.70
48454;DHT22;34261;55.678;12.464;2023-04-15T11:26:56;18.80;97.30
48454;DHT22;34261;55.678;12.464;2023-04-15T11:29:21;18.80;97.00
48454;DHT22;34261;55.678;12.464;2023-04-15T11:31:47;18.90;96.70
48454;DHT22;34261;55.678;12.464;2023-04-15T11:34:21;19.10;96.60
48454;DHT22;34261;55.678;12.464;2023-04-15T11:36:46;19.00;96.80
48454;DHT22;34261;55.678;12.464;2023-04-15T11:39:12;19.10;96.70
48454;DHT22;34261;55.678;12.464;2023-04-15T11:41:40;19.20;96.20
48454;DHT22;34261;55.678;12.464;2023-04-15T11:44:16;19.10;96.60
48454;DHT22;34261;55.678;12.464;2023-04-15T11:46:42;19.10;96.30
48454;DHT22;34261;55.678;12.464;2023-04-15T11:49:07;19.10;96.20
48454;DHT22;34261;55.678;12.464;2023-04-15T11:51:33;19.20;95.90
48454;DHT22;34261;55.678;12.464;2023-04-15T11:53:59;19.20;96.10
48454;DHT22;34261;55.678;12.464;2023-04-15T11:56:25;19.30;95.20
48454;DHT22;34261;55.678;12.464;2023-04-15T11:58:51;19.50;94.90
48454;DHT22;34261;55.678;12.464;2023-04-15T12:01:17;19.60;95.20
48454;DHT22;34261;55.678;12.464;2023-04-15T12:03:46;19.90;95.50
48454;DHT22;34261;55.678;12.464;2023-04-15T12:06:22;19.90;94.60
48454;DHT22;34261;55.678;12.464;2023-04-15T12:09:02;19.90;94.50
48454;DHT22;34261;55.678;12.464;2023-04-15T12:11:28;19.60;94.30
48454;DHT22;34261;55.678;12.464;2023-04-15T12:13:55;19.80;95.00
48454;DHT22;34261;55.678;12.464;2023-04-15T12:16:21;19.90;93.90
48454;DHT22;34261;55.678;12.464;2023-04-15T12:18:49;19.80;94.20
48454;DHT22;34261;55.678;12.464;2023-04-15T12:21:18;19.90;94.10
48454;DHT22;34261;55.678;12.464;2023-04-15T12:23:47;20.00;94.20
48454;DHT22;34261;55.678;12.464;2023-04-15T12:26:14;20.00;93.70
48454;DHT22;34261;55.678;12.464;2023-04-15T12:28:39;19.90;93.90
48454;DHT22;34261;55.678;12.464;2023-04-15T12:31:10;19.70;93.90
48454;DHT22;34261;55.678;12.464;2023-04-15T12:33:40;19.60;93.60
48454;DHT22;34261;55.678;12.464;2023-04-15T12:36:08;19.50;94.30
48454;DHT22;34261;55.678;12.464;2023-04-15T12:38:34;19.50;94.00
48454;DHT22;34261;55.678;12.464;2023-04-15T12:41:00;19.50;94.10
48454;DHT22;34261;55.678;12.464;2023-04-15T12:43:25;19.70;94.00
48454;DHT22;34261;55.678;12.464;2023-04-15T12:45:52;19.90;94.10
48454;DHT22;34261;55.678;12.464;2023-04-15T12:48:17;20.10;93.70
48454;DHT22;34261;55.678;12.464;2023-04-15T12:50:43;20.20;93.10
48454;DHT22;34261;55.678;12.464;2023-04-15T12:53:08;20.20;93.30
48454;DHT22;34261;55.678;12.464;2023-04-15T12:55:34;20.30;93.20
48454;DHT22;34261;55.678;12.464;2023-04-15T12:57:59;20.30;93.00
48454;DHT22;34261;55.678;12.464;2023-04-15T13:00:24;20.20;92.60
48454;DHT22;34261;55.678;12.464;2023-04-15T13:02:50;20.00;92.90
48454;DHT22;34261;55.678;12.464;2023-04-15T13:05:15;20.10;92.70
48454;DHT22;34261;55.678;12.464;2023-04-15T13:07:41;20.50;92.60
48454;DHT22;34261;55.678;12.464;2023-04-15T13:10:07;20.30;91.90
48454;DHT22;34261;55.678;12.464;2023-04-15T13:12:33;20.10;92.50
48454;DHT22;34261;55.678;12.464;2023-04-15T13:15:02;19.90;92.50
48454;DHT22;34261;55.678;12.464;2023-04-15T13:17:30;19.70;92.40
48454;DHT22;34261;55.678;12.464;2023-04-15T13:19:56;19.50;92.80
48454;DHT22;34261;55.678;12.464;2023-04-15T13:22:22;19.10;92.40
48454;DHT22;34261;55.678;12.464;2023-04-15T13:24:47;18.90;93.50
48454;DHT22;34261;55.678;12.464;2023-04-15T13:27:13;18.70;93.20
48454;DHT22;34261;55.678;12.464;2023-04-15T13:29:39;18.20;93.70
48454;DHT22;34261;55.678;12.464;2023-04-15T13:32:05;18.20;93.80
48454;DHT22;34261;55.678;12.464;2023-04-15T13:34:33;18.20;93.80
48454;DHT22;34261;55.678;12.464;2023-04-15T13:37:04;18.10;93.80
48454;DHT22;34261;55.678;12.464;2023-04-15T13:39:31;18.00;93.70
48454;DHT22;34261;55.678;12.464;2023-04-15T13:42:00;17.90;94.00
48454;DHT22;34261;55.678;12.464;2023-04-15T13:44:25;17.70;94.10
48454;DHT22;34261;55.678;12.464;2023-04-15T13:46:51;17.60;94.40
48454;DHT22;34261;55.678;12.464;2023-04-15T13:49:16;17.40;94.30
48454;DHT22;34261;55.678;12.464;2023-04-15T13:51:42;17.30;95.10
48454;DHT22;34261;55.678;12.464;2023-04-15T13:54:07;17.10;94.70
48454;DHT22;34261;55.678;12.464;2023-04-15T13:56:32;17.00;94.80
48454;DHT22;34261;55.678;12.464;2023-04-15T13:58:58;16.70;94.90
48454;DHT22;34261;55.678;12.464;2023-04-15T14:01:26;16.60;95.50
48454;DHT22;34261;55.678;12.464;2023-04-15T14:03:52;16.50;95.80
48454;DHT22;34261;55.678;12.464;2023-04-15T14:06:17;16.50;95.80
48454;DHT22;34261;55.678;12.464;2023-04-15T14:08:43;16.40;95.60
48454;DHT22;34261;55.678;12.464;2023-04-15T14:11:08;16.50;96.00
48454;DHT22;34261;55.678;12.464;2023-04-15T14:13:34;16.50;96.30
48454;DHT22;34261;55.678;12.464;2023-04-15T14:15:59;16.50;95.60
48454;DHT22;34261;55.678;12.464;2023-04-15T14:18:25;16.40;96.10
48454;DHT22;34261;55.678;12.464;2023-04-15T14:20:50;16.40;96.00
48454;DHT22;34261;55.678;12.464;2023-04-15T14:23:16;16.50;96.60
48454;DHT22;34261;55.678;12.464;2023-04-15T14:25:42;16.50;95.70
48454;DHT22;34261;55.678;12.464;2023-04-15T14:28:07;16.40;96.00
48454;DHT22;34261;55.678;12.464;2023-04-15T14:30:32;16.50;96.60
48454;DHT22;34261;55.678;12.464;2023-04-15T14:32:58;16.50;96.10
48454;DHT22;34261;55.678;12.464;2023-04-15T14:35:23;16.50;95.80
48454;DHT22;34261;55.678;12.464;2023-04-15T14:37:52;16.30;95.60
48454;DHT22;34261;55.678;12.464;2023-04-15T14:40:19;16.20;95.80
48454;DHT22;34261;55.678;12.464;2023-04-15T14:42:45;16.10;95.70
48454;DHT22;34261;55.678;12.464;2023-04-15T14:45:10;15.90;95.90
48454;DHT22;34261;55.678;12.464;2023-04-15T14:47:36;15.90;96.40
48454;DHT22;34261;55.678;12.464;2023-04-15T14:50:01;15.80;96.40
48454;DHT22;34261;55.678;12.464;2023-04-15T14:52:27;15.80;96.70
48454;DHT22;34261;55.678;12.464;2023-04-15T14:54:52;15.90;96.90
48454;DHT22;34261;55.678;12.464;2023-04-15T14:57:17;15.80;96.20
48454;DHT22;34261;55.678;12.464;2023-04-15T14:59:43;15.70;96.30
48454;DHT22;34261;55.678;12.464;2023-04-15T15:02:08;15.60;96.30
48454;DHT22;34261;55.678;12.464;2023-04-15T15:04:34;15.50;96.50
48454;DHT22;34261;55.678;12.464;2023-04-15T15:07:00;15.50;96.30
48454;DHT22;34261;55.678;12.464;2023-04-15T15:09:26;15.50;96.30
48454;DHT22;34261;55.678;12.464;2023-04-15T15:11:51;15.50;96.50
48454;DHT22;34261;55.678;12.464;2023-04-15T15:14:16;15.40;96.20
48454;DHT22;34261;55.678;12.464;2023-04-15T15:16:42;15.30;96.60
48454;DHT22;34261;55.678;12.464;2023-04-15T15:19:07;15.30;97.00